LGZA/ZTH METAR and TAF weather

Enter ICAO airport designator
Station Type Date Time Source
LGZA METAR 2021/04/17 17:50 UTC NOAA

LGZA 171750Z 19012KT 9999 BKN010 SCT018 17/14 Q1006


Station Type Date Time Source
LGZA Decoded METAR 2021/04/17 17:50 UTC NOAA

Zakinthos Airport , Greece (LGZA) 37-45N 020-53E
Apr 17, 2021 - 01:50 PM EDT / 2021.04.17 1750 UTC
Wind: from the S (190 degrees) at 14 MPH (12 KT):0
Visibility: greater than 7 mile(s):0
Sky conditions: mostly cloudy
Temperature: 62 F (17 C)
Dew Point: 57 F (14 C)
Relative Humidity: 82%
Pressure (altimeter): 29.71 in. Hg (1006 hPa)
ob: LGZA 171750Z 19012KT 9999 BKN010 SCT018 17/14 Q1006
cycle: 18

Station Type Date Time Source
LGZA TAF 2011/11/25 15:06 UTC NOAA

TAF TAF LGZA 251400Z 2515/2603 02012KT 9999 FEW025 SCT035 BKN080 PROB30
TEMPO 2518/2603 8000 RA PROB30 2522/2603 5000 BR SCT010

Example: see airport list